Time;durP1;ratioP1;P1;durP2;ratioP2;P2;SDS_P1;SDS_P2;PMS_P1;PMS_P2;Temp;Humidity;BMP_temperature;BMP_pressure;BME280_temperature;BME280_humidity;BME280_pressure;Samples;Min_cycle;Max_cycle;Signal;HPM_P1;HPM_P2
2021/09/24 00:00:25;;;;;;;6.72;6.03;;;;;;;17.53;66.64;98915.38;1784402;79;21023;-60
2021/09/24 00:02:51;;;;;;;6.17;5.22;;;;;;;17.52;66.60;98896.28;1780618;79;21049;-60
2021/09/24 00:05:18;;;;;;;7.05;6.33;;;;;;;17.52;66.62;98893.59;1785163;79;21589;-60
2021/09/24 00:07:46;;;;;;;8.00;5.55;;;;;;;17.51;66.57;98883.92;1776615;79;20990;-59
2021/09/24 00:10:13;;;;;;;6.58;5.20;;;;;;;17.48;66.70;98884.68;1779153;79;21048;-59
2021/09/24 00:12:41;;;;;;;6.85;5.33;;;;;;;17.48;66.72;98878.47;1742322;82;21030;-60
2021/09/24 00:15:12;;;;;;;6.17;5.50;;;;;;;17.47;66.67;98887.06;1782499;80;21057;-60
2021/09/24 00:17:41;;;;;;;5.80;5.20;;;;;;;17.46;66.71;98887.29;1785365;79;21004;-60
2021/09/24 00:20:10;;;;;;;5.85;5.15;;;;;;;17.44;66.66;98878.15;1783127;79;21041;-61
2021/09/24 00:22:38;;;;;;;6.55;5.72;;;;;;;17.45;66.68;98860.16;1783719;79;21027;-60
2021/09/24 00:25:06;;;;;;;6.10;4.83;;;;;;;17.44;66.55;98845.09;1786025;79;21505;-60
2021/09/24 00:27:33;;;;;;;6.22;5.37;;;;;;;17.42;66.62;98841.33;1779830;79;20990;-59
2021/09/24 00:30:00;;;;;;;6.95;5.37;;;;;;;17.42;66.61;98839.14;1787834;79;21003;-59
2021/09/24 00:32:26;;;;;;;7.08;5.47;;;;;;;17.41;66.59;98849.08;1776459;79;21380;-60
2021/09/24 00:34:53;;;;;;;5.62;4.70;;;;;;;17.41;66.56;98844.23;1778666;80;20988;-60
2021/09/24 00:37:21;;;;;;;5.00;4.25;;;;;;;17.40;66.52;98832.69;1775757;79;21003;-60
2021/09/24 00:39:47;;;;;;;5.25;4.75;;;;;;;17.40;66.66;98833.20;1776094;80;20972;-60
2021/09/24 00:42:16;;;;;;;5.25;4.75;;;;;;;17.39;66.51;98826.20;1778944;80;21086;-60
2021/09/24 00:44:47;;;;;;;4.62;4.08;;;;;;;17.37;66.55;98814.89;1763099;79;21060;-59
2021/09/24 00:47:14;;;;;;;5.05;4.65;;;;;;;17.38;66.53;98820.00;1759040;80;21038;-61
2021/09/24 00:49:42;;;;;;;5.05;4.55;;;;;;;17.37;66.55;98814.36;1761629;80;21041;-60
2021/09/24 00:52:09;;;;;;;6.03;4.90;;;;;;;17.36;66.62;98812.70;1786201;79;21038;-60
2021/09/24 00:54:36;;;;;;;5.37;4.85;;;;;;;17.35;66.72;98808.41;1773121;80;21549;-59
2021/09/24 00:57:03;;;;;;;4.80;4.40;;;;;;;17.34;66.71;98794.68;1774927;80;21081;-59
2021/09/24 00:59:31;;;;;;;5.12;4.40;;;;;;;17.32;66.68;98795.44;1768073;80;21543;-59
2021/09/24 01:01:58;;;;;;;5.53;4.72;;;;;;;17.32;66.59;98791.95;1772845;80;21015;-59
2021/09/24 01:04:26;;;;;;;5.25;4.53;;;;;;;17.32;66.59;98779.87;1778145;80;21011;-59
2021/09/24 01:06:52;;;;;;;5.12;4.30;;;;;;;17.30;66.71;98770.17;1752063;80;21240;-59
2021/09/24 01:09:20;;;;;;;5.60;5.10;;;;;;;17.31;66.68;98779.06;1773329;80;21030;-60
2021/09/24 01:11:46;;;;;;;5.10;4.60;;;;;;;17.29;66.74;98774.45;1775132;79;21043;-59
2021/09/24 01:14:13;;;;;;;7.17;4.60;;;;;;;17.29;66.75;98775.80;1774778;80;21050;-58
2021/09/24 01:16:41;;;;;;;5.12;4.33;;;;;;;17.28;66.69;98768.78;1774598;80;21121;-59
2021/09/24 01:19:09;;;;;;;5.03;4.28;;;;;;;17.27;66.69;98769.84;1771525;80;21058;-60
2021/09/24 01:21:41;;;;;;;5.25;4.75;;;;;;;17.27;66.62;98761.80;1782235;79;21496;-60
2021/09/24 01:24:08;;;;;;;6.55;5.40;;;;;;;17.26;66.64;98766.33;1698094;80;21073;-58
2021/09/24 01:26:34;;;;;;;4.28;3.85;;;;;;;17.25;66.71;98753.17;1767419;80;21019;-59
2021/09/24 01:29:02;;;;;;;4.40;4.00;;;;;;;17.24;66.64;98744.28;1735728;81;21054;-60
2021/09/24 01:31:28;;;;;;;4.72;4.33;;;;;;;17.24;66.64;98733.54;1736581;81;21567;-59
2021/09/24 01:33:55;;;;;;;4.53;4.12;;;;;;;17.24;66.64;98734.88;1723711;82;21149;-59
2021/09/24 01:36:21;;;;;;;4.72;4.22;;;;;;;17.23;66.66;98729.24;1694582;83;21056;-59
2021/09/24 01:38:47;;;;;;;5.10;4.55;;;;;;;17.22;66.64;98716.05;1711344;82;21027;-60
2021/09/24 01:41:14;;;;;;;4.80;4.40;;;;;;;17.21;66.67;98714.41;1719741;82;21105;-60
2021/09/24 01:43:42;;;;;;;4.37;3.98;;;;;;;17.21;66.67;98729.17;1713329;82;21115;-59
2021/09/24 01:46:10;;;;;;;5.25;4.37;;;;;;;17.19;66.68;98709.30;1715577;82;21811;-59
2021/09/24 01:48:37;;;;;;;4.60;4.20;;;;;;;17.20;66.68;98702.05;1711208;82;21089;-60
2021/09/24 01:51:05;;;;;;;4.47;3.90;;;;;;;17.19;66.73;98691.02;1718249;82;21601;-59
2021/09/24 01:53:32;;;;;;;4.15;3.83;;;;;;;17.18;66.72;98693.42;1712323;82;21050;-59
2021/09/24 01:56:00;;;;;;;4.50;3.83;;;;;;;17.18;66.80;98689.41;1730904;82;21031;-59
2021/09/24 01:58:26;;;;;;;4.70;4.30;;;;;;;17.16;66.74;98686.14;1718554;82;21067;-59
2021/09/24 02:00:53;;;;;;;4.35;3.92;;;;;;;17.16;66.76;98675.41;1713809;82;21098;-59
2021/09/24 02:03:19;;;;;;;4.42;4.03;;;;;;;17.15;66.66;98681.81;1720972;82;21514;-59
2021/09/24 02:05:45;;;;;;;4.65;4.25;;;;;;;17.14;66.71;98673.48;1702318;82;21041;-58
2021/09/24 02:08:13;;;;;;;4.67;4.17;;;;;;;17.14;66.82;98661.41;1729755;82;21057;-58
2021/09/24 02:10:42;;;;;;;4.12;3.70;;;;;;;17.14;66.75;98656.05;1695084;83;21003;-59
2021/09/24 02:13:08;;;;;;;5.35;4.28;;;;;;;17.12;66.66;98650.91;1728529;82;21045;-59
2021/09/24 02:15:36;;;;;;;4.33;3.92;;;;;;;17.14;66.71;98643.97;1691215;83;22112;-59
2021/09/24 02:18:02;;;;;;;4.35;3.95;;;;;;;17.12;66.80;98648.23;1687194;83;21066;-59
2021/09/24 02:20:31;;;;;;;5.05;4.50;;;;;;;17.11;66.78;98634.51;1753837;80;21062;-60
2021/09/24 02:22:57;;;;;;;4.53;4.12;;;;;;;17.10;66.79;98632.36;1745536;80;21108;-59
2021/09/24 02:25:23;;;;;;;3.83;3.52;;;;;;;17.10;66.80;98623.50;1752142;81;21019;-58
2021/09/24 02:27:50;;;;;;;4.15;3.60;;;;;;;17.09;66.87;98620.52;1739447;81;21030;-60
2021/09/24 02:30:16;;;;;;;4.08;3.72;;;;;;;17.09;66.92;98610.62;1740534;80;21066;-60
2021/09/24 02:32:44;;;;;;;4.28;3.87;;;;;;;17.08;66.88;98607.63;1748771;79;21121;-59
2021/09/24 02:35:11;;;;;;;4.20;3.80;;;;;;;17.08;66.89;98598.24;1783629;79;21065;-59
2021/09/24 02:37:37;;;;;;;4.97;4.47;;;;;;;17.08;66.87;98589.39;1782160;79;21047;-59
2021/09/24 02:40:06;;;;;;;4.08;3.67;;;;;;;17.06;66.88;98588.28;1786435;79;20990;-58
2021/09/24 02:42:33;;;;;;;4.20;3.60;;;;;;;17.06;66.93;98582.91;1778830;80;21054;-59
2021/09/24 02:45:01;;;;;;;4.00;3.50;;;;;;;17.06;67.01;98572.71;1781965;79;21592;-60
2021/09/24 02:47:27;;;;;;;4.25;3.85;;;;;;;17.06;66.84;98578.89;1783420;79;22376;-59
2021/09/24 02:49:55;;;;;;;4.65;3.70;;;;;;;17.04;66.92;98575.63;1774048;79;21041;-59
2021/09/24 02:52:22;;;;;;;4.60;4.00;;;;;;;17.04;66.93;98580.99;1782177;79;20971;-60
2021/09/24 02:54:50;;;;;;;3.90;3.60;;;;;;;17.04;66.86;98567.58;1786029;79;21013;-59
2021/09/24 02:57:18;;;;;;;5.17;4.15;;;;;;;17.04;66.82;98578.31;1780634;79;21068;-60
2021/09/24 02:59:44;;;;;;;4.33;3.80;;;;;;;17.03;66.95;98567.28;1768625;79;21136;-60
2021/09/24 03:02:11;;;;;;;4.30;3.90;;;;;;;17.03;66.91;98565.12;1781603;79;21053;-59
2021/09/24 03:04:38;;;;;;;4.42;4.03;;;;;;;17.03;66.95;98559.23;1783285;79;21007;-59
2021/09/24 03:07:04;;;;;;;4.33;3.92;;;;;;;17.02;66.96;98558.95;1784281;79;21005;-61
2021/09/24 03:09:33;;;;;;;4.30;3.77;;;;;;;17.02;66.87;98554.94;1787571;79;21037;-58
2021/09/24 03:11:59;;;;;;;4.12;3.72;;;;;;;17.01;66.93;98550.61;1783570;79;21269;-60
2021/09/24 03:14:25;;;;;;;4.03;3.72;;;;;;;17.01;66.94;98552.48;1781640;79;21041;-59
2021/09/24 03:16:54;;;;;;;4.20;3.80;;;;;;;17.01;66.88;98532.36;1784630;79;21042;-60
2021/09/24 03:19:20;;;;;;;3.58;3.27;;;;;;;17.00;66.88;98536.92;1780287;79;21069;-59
2021/09/24 03:21:49;;;;;;;4.40;4.00;;;;;;;17.00;66.88;98544.97;1775030;79;21068;-59
2021/09/24 03:24:15;;;;;;;4.20;3.80;;;;;;;17.00;66.92;98528.06;1782094;79;21125;-59
2021/09/24 03:26:42;;;;;;;3.65;3.35;;;;;;;16.99;66.93;98514.35;1772316;79;21039;-59
2021/09/24 03:29:09;;;;;;;4.12;3.72;;;;;;;16.98;66.92;98508.18;1779066;79;21108;-59
2021/09/24 03:31:40;;;;;;;4.47;3.95;;;;;;;16.99;66.92;98522.40;1781148;79;21105;-58
2021/09/24 03:34:08;;;;;;;4.08;3.67;;;;;;;16.98;66.93;98504.16;1785044;79;21133;-60
2021/09/24 03:36:36;;;;;;;3.80;3.50;;;;;;;16.98;66.92;98500.13;1741318;82;21988;-60
2021/09/24 03:39:07;;;;;;;4.10;3.62;;;;;;;16.97;66.97;98493.13;1722345;82;20987;-59
2021/09/24 03:41:34;;;;;;;4.85;4.35;;;;;;;16.98;66.96;98476.49;1750768;80;21037;-58
2021/09/24 03:44:00;;;;;;;4.40;3.87;;;;;;;16.98;66.97;98483.20;1781583;80;21345;-59
2021/09/24 03:46:26;;;;;;;4.53;4.12;;;;;;;16.96;66.95;98468.71;1786861;79;21073;-59
2021/09/24 03:48:53;;;;;;;4.90;4.40;;;;;;;16.96;66.83;98467.37;1782389;79;21138;-60
2021/09/24 03:51:21;;;;;;;4.15;3.75;;;;;;;16.97;66.92;98466.83;1781706;80;21082;-59
2021/09/24 03:53:49;;;;;;;4.55;4.15;;;;;;;16.95;66.89;98459.02;1786560;79;21054;-59
2021/09/24 03:56:15;;;;;;;4.15;3.75;;;;;;;16.96;66.88;98454.45;1784516;79;21017;-59
2021/09/24 03:58:43;;;;;;;4.28;3.87;;;;;;;16.95;66.89;98438.90;1783967;79;20998;-59
2021/09/24 04:01:11;;;;;;;4.10;3.70;;;;;;;16.94;66.91;98437.28;1780915;79;21058;-58
2021/09/24 04:03:38;;;;;;;4.05;3.65;;;;;;;16.95;66.87;98428.70;1781216;79;21679;-59
2021/09/24 04:06:05;;;;;;;4.28;3.87;;;;;;;16.94;66.87;98420.36;1778264;79;21022;-59
2021/09/24 04:08:33;;;;;;;4.20;3.80;;;;;;;16.94;66.92;98414.99;1781280;79;21494;-60
2021/09/24 04:10:59;;;;;;;3.98;3.58;;;;;;;16.94;66.87;98421.70;1777702;79;21057;-59
2021/09/24 04:13:27;;;;;;;4.17;3.80;;;;;;;16.93;66.95;98420.09;1784338;79;21881;-60
2021/09/24 04:15:54;;;;;;;4.37;3.98;;;;;;;16.93;66.94;98404.80;1783194;79;21062;-59
2021/09/24 04:18:22;;;;;;;4.67;4.28;;;;;;;16.92;66.91;98401.84;1783726;79;21506;-60
2021/09/24 04:20:49;;;;;;;3.47;3.17;;;;;;;16.92;66.89;98396.98;1786306;79;21046;-59
2021/09/24 04:23:17;;;;;;;4.50;4.10;;;;;;;16.92;66.85;98392.97;1760652;79;21076;-59
2021/09/24 04:25:44;;;;;;;4.00;3.60;;;;;;;16.91;66.87;98397.52;1775238;79;21124;-59
2021/09/24 04:28:10;;;;;;;3.98;3.60;;;;;;;16.90;66.90;98377.94;1780961;80;21022;-59
2021/09/24 04:30:37;;;;;;;4.00;3.70;;;;;;;16.90;66.91;98358.33;1781828;79;21711;-59
2021/09/24 04:33:06;;;;;;;4.42;4.03;;;;;;;16.90;66.90;98365.88;1781210;79;21100;-59
2021/09/24 04:35:32;;;;;;;4.30;3.92;;;;;;;16.90;66.87;98356.48;1779265;80;21522;-60
2021/09/24 04:37:58;;;;;;;4.15;3.75;;;;;;;16.90;66.90;98359.17;1771257;79;21094;-59
2021/09/24 04:40:25;;;;;;;4.53;3.95;;;;;;;16.89;66.88;98350.82;1780779;79;21169;-60
2021/09/24 04:42:53;;;;;;;4.03;3.72;;;;;;;16.89;66.88;98347.33;1782360;79;21080;-59
2021/09/24 04:45:19;;;;;;;4.50;4.08;;;;;;;16.88;66.84;98337.14;1785158;79;21489;-58
2021/09/24 04:47:47;;;;;;;3.80;3.50;;;;;;;16.86;66.88;98330.38;1773559;79;21103;-58
2021/09/24 04:50:13;;;;;;;4.25;3.85;;;;;;;16.87;66.86;98340.86;1772147;79;23118;-58
2021/09/24 04:52:40;;;;;;;3.90;3.60;;;;;;;16.88;66.86;98340.33;1782541;79;21014;-58
2021/09/24 04:55:08;;;;;;;4.17;3.83;;;;;;;16.87;66.89;98321.28;1776869;79;21053;-59
2021/09/24 04:57:35;;;;;;;4.25;3.85;;;;;;;16.87;66.82;98325.31;1774781;79;21048;-59
2021/09/24 05:00:07;;;;;;;4.47;4.03;;;;;;;16.87;66.90;98333.36;1777738;79;20993;-61
2021/09/24 05:02:33;;;;;;;3.58;3.27;;;;;;;16.86;66.88;98308.92;1779671;79;21121;-58
2021/09/24 05:04:59;;;;;;;3.72;3.42;;;;;;;16.85;66.88;98307.31;1776597;79;21088;-59
2021/09/24 05:07:27;;;;;;;3.80;3.50;;;;;;;16.85;66.83;98302.75;1786269;79;21097;-59
2021/09/24 05:09:55;;;;;;;3.70;3.40;;;;;;;16.85;66.83;98283.97;1764324;80;21556;-58
2021/09/24 05:12:22;;;;;;;4.85;4.03;;;;;;;16.84;66.79;98288.23;1762854;79;21057;-57
2021/09/24 05:14:49;;;;;;;4.25;3.85;;;;;;;16.84;66.81;98315.89;1784114;79;21105;-59
2021/09/24 05:17:17;;;;;;;3.95;3.60;;;;;;;16.84;66.79;98266.78;1776588;79;22031;-59
2021/09/24 05:19:43;;;;;;;4.03;3.58;;;;;;;16.83;66.74;98267.86;1775812;79;21010;-61
2021/09/24 05:22:11;;;;;;;4.10;3.50;;;;;;;16.84;66.80;98254.71;1770900;80;21030;-59
2021/09/24 05:24:39;;;;;;;3.67;3.37;;;;;;;16.84;66.74;98272.98;1772268;79;21097;-59
2021/09/24 05:27:06;;;;;;;4.03;3.67;;;;;;;16.84;66.74;98252.03;1771753;80;22140;-62
2021/09/24 05:29:33;;;;;;;4.17;3.77;;;;;;;16.83;66.80;98239.70;1770028;79;21016;-59
2021/09/24 05:31:59;;;;;;;3.87;3.58;;;;;;;16.81;66.85;98249.29;1778317;79;21046;-59
2021/09/24 05:34:26;;;;;;;3.83;3.25;;;;;;;16.83;66.77;98245.05;1753708;80;21065;-60
2021/09/24 05:36:52;;;;;;;3.50;3.20;;;;;;;16.82;66.87;98249.59;1775267;80;21003;-59
2021/09/24 05:39:20;;;;;;;3.67;3.37;;;;;;;16.83;66.83;98222.27;1757791;80;21145;-59
2021/09/24 05:41:47;;;;;;;3.35;3.08;;;;;;;16.82;66.80;98215.26;1775328;80;21601;-61
2021/09/24 05:44:13;;;;;;;4.20;3.80;;;;;;;16.81;66.77;98223.81;1757748;80;21039;-59
2021/09/24 05:46:41;;;;;;;3.92;3.55;;;;;;;16.82;66.80;98215.26;1765676;80;21009;-59
2021/09/24 05:49:08;;;;;;;3.77;3.47;;;;;;;16.82;66.87;98219.28;1762166;80;21043;-59
2021/09/24 05:51:36;;;;;;;3.90;3.50;;;;;;;16.82;66.75;98222.77;1746223;80;23265;-59
2021/09/24 05:54:02;;;;;;;3.72;3.42;;;;;;;16.81;66.87;98243.13;1756088;80;21010;-58
2021/09/24 05:56:29;;;;;;;3.92;3.52;;;;;;;16.80;66.86;98229.41;1777987;80;21534;-60
2021/09/24 05:58:56;;;;;;;4.78;3.37;;;;;;;16.80;66.86;98209.30;1776541;79;21069;-58
2021/09/24 06:01:24;;;;;;;4.17;3.77;;;;;;;16.80;66.86;98207.96;1761606;80;20995;-58
2021/09/24 06:03:51;;;;;;;3.70;3.40;;;;;;;16.81;66.87;98188.95;1771565;80;22055;-59
2021/09/24 06:06:18;;;;;;;3.85;3.52;;;;;;;16.91;66.50;98200.38;1759180;80;21025;-59
2021/09/24 06:08:49;;;;;;;3.85;3.50;;;;;;;16.93;66.38;98183.51;1760481;79;21527;-59
2021/09/24 06:11:14;;;;;;;4.25;3.50;;;;;;;16.93;66.38;98182.17;1766142;80;21491;-59
2021/09/24 06:13:41;;;;;;;3.95;3.65;;;;;;;16.93;66.39;98171.98;1764707;80;21027;-60
2021/09/24 06:16:08;;;;;;;3.90;3.60;;;;;;;16.92;66.41;98175.20;1777593;79;21518;-58
2021/09/24 06:18:34;;;;;;;3.98;3.67;;;;;;;16.92;66.33;98176.53;1770843;80;21022;-59
2021/09/24 06:21:02;;;;;;;3.45;3.15;;;;;;;16.93;66.30;98180.02;1772283;80;21545;-57
2021/09/24 06:23:30;;;;;;;3.95;3.55;;;;;;;16.92;66.26;98167.15;1761065;80;21088;-60
2021/09/24 06:25:59;;;;;;;3.83;3.35;;;;;;;16.91;66.27;98172.22;1770932;80;21094;-58
2021/09/24 06:28:28;;;;;;;3.67;3.33;;;;;;;16.91;66.28;98156.13;1772734;80;21502;-59
2021/09/24 06:30:57;;;;;;;3.72;3.35;;;;;;;16.91;66.34;98164.17;1735475;82;21112;-57
2021/09/24 06:33:24;;;;;;;3.62;3.33;;;;;;;16.89;66.33;98168.44;1709393;83;21073;-59
2021/09/24 06:35:50;;;;;;;4.42;3.77;;;;;;;16.89;66.34;98163.61;1723355;82;21636;-58
2021/09/24 06:38:16;;;;;;;3.87;3.10;;;;;;;16.87;66.44;98149.64;1782259;80;21348;-58
2021/09/24 06:40:43;;;;;;;4.30;3.90;;;;;;;16.88;66.46;98148.56;1782543;79;21517;-58
2021/09/24 06:43:10;;;;;;;3.95;3.37;;;;;;;16.86;66.45;98144.81;1764427;79;21635;-58
2021/09/24 06:45:37;;;;;;;3.85;3.45;;;;;;;16.86;66.45;98148.00;1771004;79;21008;-58
2021/09/24 06:48:04;;;;;;;3.30;3.00;;;;;;;16.85;66.52;98157.12;1762369;79;21674;-59
2021/09/24 06:50:32;;;;;;;4.08;3.22;;;;;;;16.85;66.49;98172.67;1760664;80;21022;-58
2021/09/24 06:52:58;;;;;;;4.70;3.80;;;;;;;16.85;66.51;98137.81;1782001;80;21156;-58
2021/09/24 06:55:25;;;;;;;3.37;3.08;;;;;;;16.84;66.45;98152.30;1779260;80;21120;-59
2021/09/24 06:57:53;;;;;;;3.25;2.95;;;;;;;16.83;66.53;98146.63;1774033;80;21014;-58
2021/09/24 07:00:20;;;;;;;3.62;3.30;;;;;;;16.84;66.55;98158.16;1771531;79;21465;-58
2021/09/24 07:02:46;;;;;;;3.25;2.90;;;;;;;16.83;66.63;98133.22;1778951;80;21321;-59
2021/09/24 07:05:12;;;;;;;3.33;3.02;;;;;;;16.83;66.60;98133.77;1774925;79;21120;-61
2021/09/24 07:07:39;;;;;;;3.62;3.30;;;;;;;16.81;66.55;98140.67;1774502;80;21506;-59
2021/09/24 07:10:07;;;;;;;3.58;3.27;;;;;;;16.82;66.61;98181.20;1774097;80;20998;-58
2021/09/24 07:12:34;;;;;;;4.00;3.45;;;;;;;16.82;66.60;98122.20;1777003;79;21101;-59
2021/09/24 07:15:03;;;;;;;3.77;3.47;;;;;;;16.81;66.60;98152.75;1773836;80;21584;-59
2021/09/24 07:17:30;;;;;;;3.50;3.02;;;;;;;16.82;66.60;98134.27;1783410;79;21142;-59
2021/09/24 07:19:57;;;;;;;3.00;2.77;;;;;;;16.82;66.60;98120.86;1787995;79;21037;-58
2021/09/24 07:22:24;;;;;;;3.60;3.22;;;;;;;16.82;66.62;98118.17;1791085;79;22481;-59
2021/09/24 07:24:50;;;;;;;3.35;3.05;;;;;;;16.82;66.64;98108.80;1771758;79;21046;-58
2021/09/24 07:27:18;;;;;;;3.47;3.17;;;;;;;16.82;66.66;98128.10;1704487;82;21111;-59
2021/09/24 07:29:44;;;;;;;3.75;3.20;;;;;;;16.82;66.74;98125.42;1778112;79;21059;-57
2021/09/24 07:32:11;;;;;;;5.80;3.47;;;;;;;16.82;66.92;98116.03;1783817;79;21089;-58
2021/09/24 07:34:39;;;;;;;4.28;3.45;;;;;;;16.81;67.45;98114.40;1775989;80;21005;-59
2021/09/24 07:37:05;;;;;;;3.35;2.75;;;;;;;16.90;67.57;98108.89;1780549;80;21014;-58
2021/09/24 07:39:32;;;;;;;3.27;2.98;;;;;;;16.99;67.35;98115.45;1778551;79;21049;-59
2021/09/24 07:41:59;;;;;;;4.53;3.20;;;;;;;17.00;67.27;98106.89;1779492;80;21148;-57
2021/09/24 07:44:26;;;;;;;5.33;3.58;;;;;;;16.99;67.36;98120.81;1779247;80;21002;-59
2021/09/24 07:49:50;;;;;;;3.35;3.05;;;;;;;17.01;67.39;98103.94;1864993;75;28550;-58
2021/09/24 07:52:16;;;;;;;3.77;3.37;;;;;;;16.96;67.30;98124.02;1830004;77;21408;-58
2021/09/24 07:54:43;;;;;;;3.45;3.12;;;;;;;16.97;67.33;98110.87;1843806;77;21203;-58
2021/09/24 07:57:11;;;;;;;3.95;3.55;;;;;;;16.97;67.38;98101.48;1840766;77;20929;-58
2021/09/24 07:59:38;;;;;;;3.92;3.45;;;;;;;16.99;67.35;98085.14;1837125;77;20977;-58
2021/09/24 08:02:05;;;;;;;4.15;3.75;;;;;;;16.99;67.41;98099.89;1836060;77;21607;-57
2021/09/24 08:04:31;;;;;;;3.98;3.58;;;;;;;16.99;67.46;98103.37;1782729;78;21044;-58
2021/09/24 08:07:00;;;;;;;4.10;3.35;;;;;;;17.00;67.40;98098.84;1780267;79;20984;-59
2021/09/24 08:09:27;;;;;;;3.17;2.87;;;;;;;17.00;67.41;98109.04;1782353;79;21040;-57
2021/09/24 08:11:54;;;;;;;3.12;2.90;;;;;;;17.01;67.40;98099.11;1758952;80;21005;-58
2021/09/24 08:14:21;;;;;;;3.85;3.45;;;;;;;17.01;67.45;98097.77;1779728;79;21045;-57
2021/09/24 08:16:48;;;;;;;3.90;3.50;;;;;;;17.01;67.48;98102.59;1773198;80;21044;-58
2021/09/24 08:19:14;;;;;;;3.98;3.50;;;;;;;17.01;67.48;98089.19;1774133;80;21136;-59
2021/09/24 08:21:41;;;;;;;3.58;3.27;;;;;;;17.01;67.50;98093.20;1772672;80;21480;-59
2021/09/24 08:24:07;;;;;;;3.25;2.95;;;;;;;17.01;67.50;98097.23;1783114;80;21049;-58
2021/09/24 08:26:34;;;;;;;3.83;3.52;;;;;;;17.02;67.56;98086.80;1785651;79;21482;-57
2021/09/24 08:29:01;;;;;;;3.92;3.45;;;;;;;17.03;67.62;98111.20;1776933;80;21024;-57
2021/09/24 08:31:29;;;;;;;3.52;3.20;;;;;;;17.04;67.69;98093.26;1766022;80;21128;-58
2021/09/24 08:33:58;;;;;;;3.80;3.50;;;;;;;17.05;67.66;98108.28;1773627;80;21072;-56
2021/09/24 08:36:25;;;;;;;4.75;3.60;;;;;;;17.06;67.71;98101.33;1771875;79;21039;-58
2021/09/24 08:38:53;;;;;;;3.42;3.12;;;;;;;17.08;67.74;98092.50;1762618;80;21052;-58
2021/09/24 08:41:25;;;;;;;3.33;3.02;;;;;;;17.21;67.37;98102.55;1762668;80;21068;-57
2021/09/24 08:43:49;;;;;;;3.20;3.00;;;;;;;17.23;67.28;98102.60;1785739;80;21142;-57
2021/09/24 08:46:16;;;;;;;3.00;2.70;;;;;;;17.25;67.28;98092.97;1786727;80;21009;-58
2021/09/24 08:48:44;;;;;;;3.33;3.02;;;;;;;17.25;67.25;98095.65;1785687;79;21181;-57
2021/09/24 08:51:12;;;;;;;3.83;3.42;;;;;;;17.25;67.25;98091.62;1772314;79;21040;-58
2021/09/24 08:53:39;;;;;;;3.12;2.83;;;;;;;17.27;67.30;98090.84;1778132;80;21037;-58
2021/09/24 08:56:05;;;;;;;3.20;2.65;;;;;;;17.30;67.28;98094.34;1765161;80;21175;-57
2021/09/24 08:58:32;;;;;;;3.30;3.00;;;;;;;17.30;67.31;98091.12;1773664;80;21047;-57
2021/09/24 09:00:58;;;;;;;4.03;3.42;;;;;;;17.34;67.31;98090.09;1778891;80;21044;-60
2021/09/24 09:03:40;;;;;;;3.87;3.50;;;;;;;17.37;67.36;98079.40;1771919;79;21108;-59
2021/09/24 09:06:08;;;;;;;3.10;2.87;;;;;;;17.38;67.21;98079.13;1777640;79;21101;-60
2021/09/24 09:08:34;;;;;;;3.40;3.10;;;;;;;17.41;67.35;98073.80;1778481;79;21979;-60
2021/09/24 09:11:07;;;;;;;3.67;3.35;;;;;;;17.44;67.26;98078.64;1773688;80;21045;-59
2021/09/24 09:13:40;;;;;;;2.67;2.47;;;;;;;17.48;67.31;98076.56;1782666;80;21009;-60
2021/09/24 09:16:19;;;;;;;3.25;2.95;;;;;;;17.54;66.62;98080.11;1790550;80;21613;-61
2021/09/24 09:18:48;;;;;;;3.70;2.85;;;;;;;17.62;66.26;98085.55;1788815;79;21013;-59
2021/09/24 09:21:16;;;;;;;3.42;3.12;;;;;;;17.69;66.13;98078.91;1784306;80;21110;-58
2021/09/24 09:23:48;;;;;;;3.25;2.95;;;;;;;17.78;66.09;98073.87;1770035;80;21568;-57
2021/09/24 09:26:13;;;;;;;3.60;3.30;;;;;;;17.86;66.01;98071.27;1773225;80;21065;-61
2021/09/24 09:28:49;;;;;;;4.30;3.52;;;;;;;17.95;65.70;98070.28;1779576;80;21054;-63
2021/09/24 09:31:27;;;;;;;4.75;3.75;;;;;;;18.04;65.91;98075.44;1735029;79;21529;-61
2021/09/24 09:33:56;;;;;;;3.90;3.52;;;;;;;18.15;66.48;98081.17;1783092;79;21156;-62
2021/09/24 09:36:41;;;;;;;4.53;4.05;;;;;;;18.33;66.48;98063.84;1805148;78;21064;-63
2021/09/24 09:39:11;;;;;;;5.62;3.83;;;;;;;18.51;66.03;98082.75;1763809;79;21056;-61
2021/09/24 09:41:47;;;;;;;4.67;4.08;;;;;;;18.60;65.62;98074.47;1773104;79;21085;-62
2021/09/24 09:44:25;;;;;;;5.80;4.12;;;;;;;18.66;65.35;98077.45;1779801;79;21068;-62
2021/09/24 09:46:52;;;;;;;5.75;4.33;;;;;;;18.71;65.12;98057.84;1778005;79;21136;-61
2021/09/24 09:49:18;;;;;;;6.40;4.62;;;;;;;18.76;65.14;98057.87;1765619;80;21079;-61
2021/09/24 09:51:47;;;;;;;6.30;4.22;;;;;;;18.80;64.95;98060.34;1786096;78;21529;-61
2021/09/24 09:54:29;;;;;;;5.95;4.20;;;;;;;18.83;64.79;98070.58;1746756;80;21008;-61
2021/09/24 09:57:18;;;;;;;7.70;4.67;;;;;;;18.91;64.78;98074.66;1754855;80;21095;-63
2021/09/24 09:59:54;;;;;;;8.18;4.58;;;;;;;18.99;64.91;98066.06;1759157;80;21214;-62
2021/09/24 10:02:31;;;;;;;6.95;4.67;;;;;;;19.10;65.21;98063.39;1751808;80;21010;-62
2021/09/24 10:04:58;;;;;;;5.80;4.83;;;;;;;19.22;65.32;98064.79;1764313;80;21075;-62
2021/09/24 10:07:27;;;;;;;10.80;5.62;;;;;;;19.34;65.33;98055.13;1782706;79;21020;-61
2021/09/24 10:10:10;;;;;;;9.80;6.05;;;;;;;19.48;65.26;98063.48;1782996;79;21151;-60
2021/09/24 10:12:37;;;;;;;8.48;4.92;;;;;;;19.61;65.09;98061.62;1780805;79;21754;-62
2021/09/24 10:15:11;;;;;;;10.03;5.83;;;;;;;19.76;64.76;98063.56;1782067;79;21104;-62
2021/09/24 10:17:39;;;;;;;8.63;4.92;;;;;;;19.87;64.43;98067.05;1777251;79;21036;-61
2021/09/24 10:20:07;;;;;;;9.18;5.85;;;;;;;19.99;64.06;98073.51;1782520;79;21272;-61
2021/09/24 10:22:34;;;;;;;10.40;6.28;;;;;;;20.07;63.60;98079.73;1782277;79;21013;-62
2021/09/24 10:25:00;;;;;;;10.05;6.83;;;;;;;20.14;62.94;98079.44;1781713;79;21098;-62
2021/09/24 10:27:33;;;;;;;9.10;6.37;;;;;;;20.19;62.41;98082.14;1782075;79;21443;-63
2021/09/24 10:30:14;;;;;;;9.45;5.87;;;;;;;20.24;62.12;98083.46;1784927;78;21060;-62
2021/09/24 10:32:58;;;;;;;7.78;5.60;;;;;;;20.28;61.75;98087.77;1777067;79;21074;-62
2021/09/24 10:35:51;;;;;;;7.35;4.97;;;;;;;20.30;61.48;98099.09;1781413;79;21157;-64
2021/09/24 10:38:22;;;;;;;9.48;5.30;;;;;;;20.31;61.21;98098.83;1777221;79;21162;-62
2021/09/24 10:40:57;;;;;;;8.03;4.92;;;;;;;20.32;61.05;98095.59;1777751;80;21025;-62
2021/09/24 10:43:24;;;;;;;6.92;4.70;;;;;;;20.32;60.98;98091.02;1778469;79;21596;-63
2021/09/24 10:45:50;;;;;;;6.65;4.55;;;;;;;20.32;60.92;98096.42;1777988;79;21576;-61
2021/09/24 10:48:21;;;;;;;7.03;4.92;;;;;;;20.32;60.85;98095.06;1782357;79;21135;-62
2021/09/24 10:50:53;;;;;;;7.65;4.95;;;;;;;20.33;60.79;98098.56;1776125;79;21096;-62
2021/09/24 10:53:24;;;;;;;8.98;4.33;;;;;;;20.33;60.74;98099.91;1753544;80;21614;-63
2021/09/24 10:55:59;;;;;;;6.55;4.28;;;;;;;20.33;60.67;98095.87;1746302;80;21114;-63
2021/09/24 10:58:32;;;;;;;7.45;4.75;;;;;;;20.34;60.65;98093.42;1780627;79;21059;-62
2021/09/24 11:01:11;;;;;;;7.10;4.67;;;;;;;20.37;60.55;98099.09;1741233;81;21029;-61
2021/09/24 11:03:59;;;;;;;7.50;4.80;;;;;;;20.45;60.50;98103.12;1747304;81;21125;-62
2021/09/24 11:06:44;;;;;;;5.25;3.87;;;;;;;20.51;60.45;98097.17;1687911;81;22461;-62
2021/09/24 11:09:17;;;;;;;6.83;4.33;;;;;;;20.56;60.33;98091.23;1754253;79;21085;-62
2021/09/24 11:11:49;;;;;;;;;;;;;;;20.62;60.17;98100.16;1757468;80;21077;-65
2021/09/24 11:14:30;;;;;;;6.15;3.75;;;;;;;20.67;59.97;98085.83;1759162;79;20192;-61
2021/09/24 11:16:59;;;;;;;5.92;3.33;;;;;;;20.65;59.95;98104.19;1762260;80;21123;-62
2021/09/24 11:19:37;;;;;;;5.17;3.70;;;;;;;20.68;59.79;98100.95;1753091;80;21537;-62
2021/09/24 11:22:25;;;;;;;5.80;3.62;;;;;;;20.70;59.70;98098.23;1749705;80;21064;-61
2021/09/24 11:25:03;;;;;;;5.85;3.37;;;;;;;20.74;59.59;98108.74;1749665;80;21094;-63
2021/09/24 11:27:36;;;;;;;4.70;3.10;;;;;;;20.79;59.45;98111.98;1760095;79;21132;-61
2021/09/24 11:30:06;;;;;;;;;;;;;;;20.80;59.33;98106.84;1756003;79;21141;-61
2021/09/24 11:32:39;;;;;;;4.70;3.30;;;;;;;20.84;59.17;98097.66;1760144;79;20173;-61
2021/09/24 11:35:09;;;;;;;6.53;3.37;;;;;;;20.82;59.14;98100.63;1750915;80;21030;-61
2021/09/24 11:37:37;;;;;;;5.42;3.30;;;;;;;20.86;59.04;98117.08;1750159;80;21570;-62
2021/09/24 11:40:19;;;;;;;5.45;2.90;;;;;;;20.89;58.90;98116.55;1752030;80;21822;-62
2021/09/24 11:42:52;;;;;;;3.70;3.20;;;;;;;20.93;58.83;98105.46;1749385;80;21095;-62